createdAt,value
2019-05-29T00:05:59.885Z,22.19
2019-05-29T00:16:03.479Z,22.16
2019-05-29T00:26:08.240Z,22.10
2019-05-29T00:36:12.334Z,22.04
2019-05-29T00:46:16.064Z,22.00
2019-05-29T00:56:19.603Z,21.97
2019-05-29T01:06:23.153Z,21.90
2019-05-29T01:16:26.686Z,21.87
2019-05-29T01:26:30.250Z,21.82
2019-05-29T01:36:33.794Z,21.78
2019-05-29T01:46:37.323Z,21.75
2019-05-29T01:56:40.892Z,21.70
2019-05-29T02:06:44.457Z,21.65
2019-05-29T02:16:48.008Z,21.62
2019-05-29T02:26:51.549Z,21.58
2019-05-29T02:36:55.153Z,21.54
2019-05-29T02:46:58.721Z,21.50
2019-05-29T02:57:02.271Z,21.45
2019-05-29T03:07:05.810Z,21.43
2019-05-29T03:17:09.391Z,21.40
2019-05-29T03:27:12.952Z,21.38
2019-05-29T03:37:16.481Z,21.36
2019-05-29T03:47:20.046Z,21.32
2019-05-29T03:57:23.587Z,21.32
2019-05-29T04:07:27.149Z,21.33
2019-05-29T04:17:32.307Z,21.34
2019-05-29T04:27:38.281Z,21.51
2019-05-29T04:37:42.018Z,21.51
2019-05-29T04:47:45.604Z,21.58
2019-05-29T04:57:50.993Z,21.59
2019-05-29T05:07:54.643Z,21.62
2019-05-29T05:17:58.237Z,21.62
2019-05-29T05:28:01.826Z,21.59
2019-05-29T05:38:05.815Z,21.59
2019-05-29T05:48:09.395Z,21.63
2019-05-29T05:58:12.972Z,21.63
2019-05-29T06:08:16.545Z,21.60
2019-05-29T06:18:21.839Z,21.62
2019-05-29T06:28:25.390Z,21.60
2019-05-29T06:38:28.967Z,21.66
2019-05-29T06:48:46.244Z,21.76
2019-05-29T06:58:38.147Z,21.99
2019-05-29T07:08:45.089Z,22.29
2019-05-29T07:19:23.432Z,22.28
2019-05-29T07:29:06.940Z,22.41
2019-05-29T07:39:03.482Z,22.58
2019-05-29T07:49:17.995Z,22.71
2019-05-29T07:59:21.530Z,22.86
2019-05-29T08:09:25.075Z,23.05
2019-05-29T08:19:28.980Z,23.13
2019-05-29T08:29:32.534Z,23.29
2019-05-29T08:39:37.088Z,23.41
2019-05-29T08:49:41.759Z,23.44
2019-05-29T08:59:46.386Z,23.51
2019-05-29T09:09:51.213Z,23.58
2019-05-29T09:19:55.083Z,23.66
2019-05-29T09:29:58.645Z,23.64
2019-05-29T09:40:02.187Z,23.72
2019-05-29T09:50:08.214Z,23.71
2019-05-29T10:00:11.766Z,23.74
2019-05-29T10:10:16.925Z,23.75
2019-05-29T10:20:20.583Z,23.78
2019-05-29T10:30:24.236Z,23.74
2019-05-29T10:40:27.847Z,23.69
2019-05-29T10:50:31.475Z,23.66
2019-05-29T11:00:38.649Z,23.73
2019-05-29T11:10:40.353Z,23.66
2019-05-29T11:20:43.944Z,23.60
2019-05-29T11:30:48.626Z,23.55
2019-05-29T11:41:22.358Z,23.50
2019-05-29T11:50:58.302Z,23.48
2019-05-29T12:01:01.877Z,23.42
2019-05-29T12:11:07.121Z,23.41
2019-05-29T12:21:10.984Z,23.36
2019-05-29T12:31:14.557Z,23.34
2019-05-29T12:41:18.152Z,23.31
2019-05-29T12:51:21.733Z,23.27
2019-05-29T13:01:25.328Z,23.24
2019-05-29T13:11:28.906Z,23.21
2019-05-29T13:21:32.488Z,23.18
2019-05-29T13:31:36.060Z,23.12
2019-05-29T13:41:39.632Z,23.10
2019-05-29T13:51:43.241Z,23.09
2019-05-29T14:01:48.596Z,23.08
2019-05-29T14:11:52.320Z,23.07
2019-05-29T14:21:55.952Z,23.05
2019-05-29T14:32:00.825Z,23.00
2019-05-29T14:42:06.038Z,22.99
2019-05-29T14:52:11.339Z,22.93
2019-05-29T15:02:22.763Z,22.93
2019-05-29T15:12:20.215Z,22.86
2019-05-29T15:22:23.794Z,22.86
2019-05-29T15:32:27.355Z,22.88
2019-05-29T15:42:30.945Z,22.84
2019-05-29T15:52:34.532Z,22.82
2019-05-29T16:02:38.096Z,22.78
2019-05-29T16:12:41.675Z,22.75
2019-05-29T16:22:45.286Z,22.73
2019-05-29T16:32:48.851Z,22.68
2019-05-29T16:42:52.398Z,22.64
2019-05-29T16:52:55.970Z,22.61
2019-05-29T17:02:59.525Z,22.61
2019-05-29T17:13:03.340Z,22.54
2019-05-29T17:23:06.898Z,22.48
2019-05-29T17:33:10.472Z,22.52
2019-05-29T17:43:15.339Z,22.52
2019-05-29T17:53:19.991Z,22.47
2019-05-29T18:03:24.206Z,22.44
2019-05-29T18:13:27.898Z,22.42
2019-05-29T18:23:31.474Z,22.40
2019-05-29T18:33:35.020Z,22.40
2019-05-29T18:43:38.567Z,22.40
2019-05-29T18:53:42.183Z,22.97
2019-05-29T19:03:45.767Z,24.03
2019-05-29T19:13:49.552Z,23.87
2019-05-29T19:23:53.098Z,23.90
2019-05-29T19:33:56.697Z,23.32
2019-05-29T19:44:00.254Z,23.12
2019-05-29T19:54:05.982Z,22.96
2019-05-29T20:04:09.634Z,22.85
2019-05-29T20:14:13.216Z,22.78
2019-05-29T20:24:16.815Z,22.69
2019-05-29T20:34:20.385Z,22.66
2019-05-29T20:44:24.329Z,22.58
2019-05-29T20:54:27.871Z,22.54
2019-05-29T21:04:33.054Z,22.46
2019-05-29T21:14:37.830Z,22.47
2019-05-29T21:24:46.425Z,22.42
2019-05-29T21:34:46.784Z,22.33
2019-05-29T21:44:50.358Z,22.30
2019-05-29T21:54:53.935Z,22.26
2019-05-29T22:04:57.500Z,22.25
2019-05-29T22:15:02.532Z,22.13
2019-05-29T22:25:07.438Z,22.12
2019-05-29T22:35:11.023Z,22.07
2019-05-29T22:45:14.611Z,22.04
2019-05-29T22:55:18.196Z,21.99
2019-05-29T23:05:21.825Z,21.92
2019-05-29T23:15:25.392Z,21.92
2019-05-29T23:25:29.273Z,24.97
2019-05-29T23:35:33.168Z,26.72
2019-05-29T23:45:37.049Z,25.49
2019-05-29T23:55:40.828Z,25.22
